Terminal Aerodrome Forecast
Issued by NWS

Home | Current Version | Previous Version | Text Only | Print | Product List | Glossary On
Versions: 1 2 3 4 5 6 7 8 9 10 11 12 13 14 15 16 17 18 19 20 21 22 23 24 25 26 27 28 29 30
000
FTUS41 KBOX 260537
TAFFMH
TAF
KFMH 260537Z 2606/2706 33006KT P6SM SCT140
     FM260900 02006KT P6SM BKN110
     FM261400 05009KT P6SM OVC025
     FM261600 06012KT P6SM OVC015
     FM262000 05015G26KT 3SM -SN OVC015
     FM270000 05019G37KT 1/2SM -SN BLSN OVC008=

USA.gov is the U.S. government's official web portal to all federal, state and local government web resources and services.